KTBR/TBR METAR and TAF weather

Enter ICAO airport designator
Station Type Date Time Source
KTBR METAR 2021/07/30 23:35 UTC NOAA

KTBR 302335Z AUTO 00000KT 10SM CLR 32/22 A2994 RMK AO2 T03200218


Station Type Date Time Source
KTBR Decoded METAR 2021/07/30 23:35 UTC NOAA

Statesboro, Statesboro-Bulloch County Airport, GA, United States (KTBR) 32-28-59N 081-44-14W
Jul 30, 2021 - 07:35 PM EDT / 2021.07.30 2335 UTC
Wind: Calm:0
Visibility: 10 mile(s):0
Sky conditions: clear
Temperature: 89.6 F (32.0 C)
Heat index: 95.7 F (35.4 C):1
Dew Point: 71.2 F (21.8 C)
Relative Humidity: 54%
Pressure (altimeter): 29.94 in. Hg (1013 hPa)
ob: KTBR 302335Z AUTO 00000KT 10SM CLR 32/22 A2994 RMK AO2 T03200218
cycle: 23

Station Type Date Time Source
KTBR TAF UTC NOAA

Error!

Example: see airport list